KATS

Artesia Municipal Airport

Artesia, New Mexico, USA
METAR KATS 181055Z AUTO 19005KT 10SM CLR 18/17 A3002 RMK AO2
Observed Flight Rules
Jun-18 @ 10:55 UTC (9 minutes ago) Visual Flight Rules
Wind Visibility Clouds
190° at 5 knots 10 miles
  • Clear skies
Temperatures Readings
Current 18°C / 64°F
Dewpoint 17°C / 63°F
Humidity 94%
Altimeter 30.02" Hg
Pressure 1017 hPa
Elevation 1081
METAR KATS 181055Z AUTO 19005KT 10SM CLR 18/17 A3002 RMK AO2
Observed Flight Rules
Jun-18 @ 10:55 UTC
(9 minutes ago)
VFR
Wind Visibility
190° at 5 knots 10 miles
Clouds
  • Clear skies
Temperature Dewpoint
18°C / 64°F 17°C / 63°F
Humidity Altimeter Pressure
94% 30.02" Hg 1017 hPa